Αρχική σελίδα
METAR-TAF:

METAR-TAF

Αεροδρόμια :

Ώκλαντ, Νέα Ζηλανδία

γεωγραφικό πλάτος: 37-01S, γεωγραφικό μήκος: 174-48E, υψόμετρο: 7 μ

Παρών καιρός

Η αναφορά έγινε 17 λεπτά πριν, στις 04:00 UTC
Άνεμος 14 kt από ΝΔ
Θερμοκρασία 16°C
Υγρασία 68%
Πίεση 1012 hPa
Ορατότητα 10 χλμ και άνω

METAR: NZAA 230400Z AUTO 22014KT 9999 FEW025/// 16/10 Q1012 NOSIG

Χρόνος: 16:17 (04:17 UTC)

Πρόγνωση Καιρού

Η αναφορά έγινε 5 ώρες και 13 λεπτά πριν, στις 23:04 UTC
Η πρόγνωση ισχύει από τις 23 στις 00 UTC έως τις 24 στις 00 UTC
Άνεμος 12 kt από ΝΔ
Ορατότητα 10 χλμ και άνω
Διάσπαρτα νέφη σε ύψος 3000 πόδια
Από 23 στις 0700 UTC
Άνεμος 5 kt από ΝΔ
Ορατότητα 10 χλμ και άνω
Λίγα νέφη σε ύψος 2000 πόδια
Αρκετά νέφη σε ύψος 3000 πόδια
Ασθενείς όμβροι

TAF: NZAA 222304Z 2300/2400 22012KT 9999 SCT030 FM230700 22005KT 9999 -SHRA FEW020 BKN030

Μετεωρολογικές αναφορές και προγνώσεις για περισσότερα από 4000 αεροδρόμια (δελτία METAR και TAF).

Οι διαθέσιμοι σταθμοί απεικονίζονται στο χάρτη με κίτρινες και κόκκινες κουκκίδες.

Μετακινήστε το ποντίκι πάνω από τις κουκκίδες για να δείτε το όνομα του σταθμού.

Στη συνέχεια, κάντε κλικ για να δείτε τις μετεωρολογικές αναφορές και τις προγνώσεις καιρού.

Για να αλλάξετε το χάρτη: κάντε κλικ στα πράσινα κουμπιά με τον μαύρο σταυρό για να ζουμάρετε, στο πράσινο κουμπί με την παύλα για να αφαιρέσετε το ζουμ ή στα πράσινα βέλη για να αντιπαραβάλλετε χάρτες.


METAR-TAF: